createdAt,value
2022-12-18T00:00:20.328Z,23.53
2022-12-18T00:01:29.372Z,22.03
2022-12-18T00:02:30.911Z,21.63
2022-12-18T00:03:35.957Z,17.77
2022-12-18T00:04:37.488Z,23.97
2022-12-18T00:05:38.965Z,20.03
2022-12-18T00:06:40.412Z,20.77
2022-12-18T00:07:43.076Z,21.40
2022-12-18T00:08:45.267Z,19.17
2022-12-18T00:09:46.716Z,23.17
2022-12-18T00:10:48.192Z,22.03
2022-12-18T00:11:49.684Z,21.43
2022-12-18T00:12:51.176Z,20.73
2022-12-18T00:13:54.154Z,20.03
2022-12-18T00:14:55.595Z,22.90
2022-12-18T00:16:02.003Z,20.63
2022-12-18T00:17:03.816Z,19.50
2022-12-18T00:18:05.572Z,19.13
2022-12-18T00:19:08.379Z,20.43
2022-12-18T00:20:10.115Z,20.00
2022-12-18T00:21:12.653Z,20.20
2022-12-18T00:22:14.105Z,23.70
2022-12-18T00:23:15.555Z,23.40
2022-12-18T00:24:17.254Z,20.07
2022-12-18T00:25:18.812Z,21.20
2022-12-18T00:26:21.758Z,23.93
2022-12-18T00:27:23.209Z,24.90
2022-12-18T00:28:24.667Z,21.70
2022-12-18T00:29:26.140Z,22.67
2022-12-18T00:30:27.717Z,22.40
2022-12-18T00:31:29.273Z,19.33
2022-12-18T00:32:30.778Z,22.63
2022-12-18T00:33:32.417Z,25.33
2022-12-18T00:34:34.016Z,20.90
2022-12-18T00:35:35.459Z,21.00
2022-12-18T00:36:36.967Z,24.20
2022-12-18T00:37:38.432Z,23.37
2022-12-18T00:38:40.389Z,24.63
2022-12-18T00:39:42.001Z,21.20
2022-12-18T00:40:43.445Z,22.70
2022-12-18T00:42:03.555Z,21.57
2022-12-18T00:43:05.016Z,23.33
2022-12-18T00:44:06.990Z,21.60
2022-12-18T00:45:12.589Z,21.13
2022-12-18T00:46:14.750Z,19.50
2022-12-18T00:47:16.221Z,22.67
2022-12-18T00:48:17.885Z,20.60
2022-12-18T00:49:20.012Z,22.27
2022-12-18T00:50:22.835Z,21.30
2022-12-18T00:51:24.998Z,22.03
2022-12-18T00:52:26.476Z,24.00
2022-12-18T00:53:27.949Z,20.80
2022-12-18T00:54:29.490Z,20.30
2022-12-18T00:55:30.991Z,20.63
2022-12-18T00:56:32.444Z,19.83
2022-12-18T00:57:33.871Z,20.80
2022-12-18T00:58:38.317Z,20.73
2022-12-18T00:59:39.775Z,24.33
2022-12-18T01:00:41.378Z,20.07
2022-12-18T01:01:43.729Z,21.60
2022-12-18T01:02:45.857Z,23.97
2022-12-18T01:03:47.727Z,20.77
2022-12-18T01:04:49.168Z,19.73
2022-12-18T01:05:50.900Z,22.60
2022-12-18T01:06:52.351Z,18.63
2022-12-18T01:07:53.927Z,22.87
2022-12-18T01:08:55.667Z,20.77
2022-12-18T01:09:57.323Z,21.17
2022-12-18T01:10:58.856Z,24.40
2022-12-18T01:12:00.306Z,18.80
2022-12-18T01:13:01.773Z,18.77
2022-12-18T01:14:03.253Z,24.33
2022-12-18T01:15:05.927Z,20.60
2022-12-18T01:16:07.629Z,20.53
2022-12-18T01:17:09.084Z,21.73
2022-12-18T01:18:10.726Z,22.53
2022-12-18T01:19:12.444Z,28.00
2022-12-18T01:20:13.963Z,21.13
2022-12-18T01:21:16.983Z,19.73
2022-12-18T01:22:18.423Z,20.07
2022-12-18T01:23:19.869Z,22.07
2022-12-18T01:24:21.355Z,22.27
2022-12-18T01:25:22.871Z,23.57
2022-12-18T01:26:24.856Z,20.13
2022-12-18T01:27:26.297Z,23.97
2022-12-18T01:28:27.903Z,22.97
2022-12-18T01:29:29.840Z,22.57
2022-12-18T01:30:31.308Z,19.90
2022-12-18T01:31:34.102Z,23.67
2022-12-18T01:32:35.611Z,20.67
2022-12-18T01:33:37.341Z,20.83
2022-12-18T01:34:39.086Z,19.07
2022-12-18T01:35:43.470Z,18.83
2022-12-18T01:36:44.990Z,22.93
2022-12-18T01:37:46.587Z,22.63
2022-12-18T01:38:48.563Z,22.70
2022-12-18T01:39:50.983Z,24.00
2022-12-18T01:40:57.959Z,19.73
2022-12-18T01:42:06.599Z,18.67
2022-12-18T01:43:10.092Z,22.63
2022-12-18T01:44:29.940Z,19.43
2022-12-18T01:45:32.318Z,18.13
2022-12-18T01:46:33.808Z,22.60
2022-12-18T01:47:44.644Z,20.20
2022-12-18T01:48:52.599Z,18.00
2022-12-18T01:49:54.858Z,21.53
2022-12-18T01:50:56.911Z,24.70
2022-12-18T01:51:58.428Z,21.47
2022-12-18T01:53:12.273Z,21.53
2022-12-18T01:54:14.135Z,21.43
2022-12-18T01:55:17.427Z,25.97
2022-12-18T01:56:22.075Z,21.17
2022-12-18T01:57:24.436Z,17.87
2022-12-18T01:58:46.191Z,21.47
2022-12-18T01:59:50.505Z,17.83
2022-12-18T02:00:51.976Z,18.50
2022-12-18T02:01:53.638Z,19.77
2022-12-18T02:02:55.438Z,19.13
2022-12-18T02:03:57.026Z,19.77
2022-12-18T02:04:58.968Z,16.80
2022-12-18T02:06:00.440Z,20.67
2022-12-18T02:07:10.869Z,18.07
2022-12-18T02:08:17.505Z,19.90
2022-12-18T02:09:18.964Z,21.00
2022-12-18T02:10:22.153Z,19.37
2022-12-18T02:11:32.428Z,18.47
2022-12-18T02:12:39.884Z,19.47
2022-12-18T02:13:44.093Z,20.13
2022-12-18T02:14:48.191Z,20.60
2022-12-18T02:15:55.259Z,19.17
2022-12-18T02:17:03.147Z,17.80
2022-12-18T02:18:08.633Z,17.00
2022-12-18T02:19:30.362Z,15.70
2022-12-18T02:20:52.469Z,15.85
2022-12-18T02:21:58.236Z,18.37
2022-12-18T02:23:05.191Z,19.37
2022-12-18T02:24:17.953Z,16.63
2022-12-18T02:25:25.494Z,15.37
2022-12-18T02:26:30.079Z,19.27
2022-12-18T02:27:33.325Z,23.40
2022-12-18T02:28:37.136Z,16.07
2022-12-18T02:29:46.057Z,16.90
2022-12-18T02:30:50.049Z,19.77
2022-12-18T02:31:55.680Z,16.30
2022-12-18T02:32:58.628Z,19.17
2022-12-18T02:34:02.734Z,15.20
2022-12-18T02:35:05.455Z,19.90
2022-12-18T02:36:07.922Z,17.07
2022-12-18T02:37:11.990Z,14.37
2022-12-18T02:38:14.769Z,16.47
2022-12-18T02:39:17.169Z,18.77
2022-12-18T02:40:19.229Z,20.77
2022-12-18T02:41:24.831Z,15.10
2022-12-18T02:42:26.988Z,19.17
2022-12-18T02:43:28.475Z,16.53
2022-12-18T02:44:30.435Z,17.77
2022-12-18T02:45:32.128Z,19.10
2022-12-18T02:46:35.654Z,15.93
2022-12-18T02:47:39.229Z,22.20
2022-12-18T02:48:40.823Z,17.50
2022-12-18T02:49:42.420Z,15.37
2022-12-18T02:50:49.693Z,15.47
2022-12-18T02:51:56.431Z,17.00
2022-12-18T02:53:07.356Z,16.53
2022-12-18T02:54:18.155Z,14.55
2022-12-18T02:55:27.279Z,12.35
2022-12-18T02:56:36.588Z,13.43
2022-12-18T02:57:41.686Z,15.97
2022-12-18T02:59:01.949Z,14.53
2022-12-18T03:00:07.377Z,16.30
2022-12-18T03:01:11.918Z,13.73
2022-12-18T03:02:16.334Z,13.77
2022-12-18T03:03:25.487Z,15.70
2022-12-18T03:04:30.319Z,13.20
2022-12-18T03:05:35.032Z,13.50
2022-12-18T03:06:38.235Z,18.40
2022-12-18T03:07:43.331Z,14.17
2022-12-18T03:08:46.455Z,16.33
2022-12-18T03:09:50.428Z,15.60
2022-12-18T03:10:58.528Z,12.07
2022-12-18T03:12:23.683Z,18.30
2022-12-18T03:13:48.445Z,15.50
2022-12-18T03:14:52.976Z,18.23
2022-12-18T03:15:56.240Z,12.50
2022-12-18T03:17:00.172Z,17.40
2022-12-18T03:18:11.706Z,14.00
2022-12-18T03:19:16.069Z,14.25
2022-12-18T03:20:19.931Z,18.47
2022-12-18T03:21:23.497Z,15.27
2022-12-18T03:22:25.620Z,13.23
2022-12-18T03:23:30.169Z,14.83
2022-12-18T03:24:32.703Z,19.53
2022-12-18T03:25:35.789Z,13.13
2022-12-18T03:26:38.718Z,13.83
2022-12-18T03:27:43.320Z,12.50
2022-12-18T03:28:46.984Z,15.63
2022-12-18T03:29:54.971Z,13.37
2022-12-18T03:30:58.103Z,15.30
2022-12-18T03:32:03.480Z,18.43
2022-12-18T03:33:07.774Z,12.97
2022-12-18T03:34:20.759Z,14.30
2022-12-18T03:35:23.880Z,14.53
2022-12-18T03:36:25.871Z,13.30
2022-12-18T03:37:27.419Z,14.90
2022-12-18T03:38:28.880Z,15.97
2022-12-18T03:39:30.411Z,13.70
2022-12-18T03:40:36.183Z,15.30
2022-12-18T03:41:59.647Z,14.10
2022-12-18T03:43:06.097Z,12.03
2022-12-18T03:44:26.446Z,13.97
2022-12-18T03:45:32.608Z,12.20
2022-12-18T03:46:39.774Z,17.80
2022-12-18T03:47:48.705Z,15.47
2022-12-18T03:48:52.888Z,15.03
2022-12-18T03:49:58.771Z,16.03
2022-12-18T03:51:00.226Z,14.53
2022-12-18T03:52:04.563Z,14.67
2022-12-18T03:53:24.275Z,15.97
2022-12-18T03:54:27.125Z,16.27
2022-12-18T03:55:30.583Z,15.90
2022-12-18T03:56:34.460Z,14.33
2022-12-18T03:57:36.565Z,12.87
2022-12-18T03:58:39.762Z,15.13
2022-12-18T03:59:44.445Z,12.93
2022-12-18T04:00:46.757Z,12.17
2022-12-18T04:01:50.135Z,14.57
2022-12-18T04:02:53.701Z,14.50
2022-12-18T04:03:56.152Z,13.60
2022-12-18T04:04:59.302Z,12.73
2022-12-18T04:06:01.214Z,15.07
2022-12-18T04:07:03.256Z,12.80
2022-12-18T04:08:05.435Z,15.77
2022-12-18T04:09:07.175Z,15.63
2022-12-18T04:10:13.721Z,17.87
2022-12-18T04:11:15.824Z,12.37
2022-12-18T04:12:17.460Z,13.03
2022-12-18T04:13:26.016Z,10.93
2022-12-18T04:14:27.500Z,15.23
2022-12-18T04:15:29.014Z,15.67
2022-12-18T04:16:30.561Z,15.73
2022-12-18T04:17:32.047Z,14.23
2022-12-18T04:18:33.658Z,14.53
2022-12-18T04:19:35.188Z,13.50
2022-12-18T04:20:36.637Z,13.00
2022-12-18T04:21:38.167Z,15.67
2022-12-18T04:22:40.057Z,12.83
2022-12-18T04:23:42.979Z,12.93
2022-12-18T04:24:44.728Z,17.20
2022-12-18T04:25:47.621Z,15.43
2022-12-18T04:26:49.065Z,12.30
2022-12-18T04:27:50.549Z,14.37
2022-12-18T04:28:52.327Z,15.40
2022-12-18T04:29:53.841Z,14.50
2022-12-18T04:30:55.330Z,14.90
2022-12-18T04:31:57.120Z,11.57
2022-12-18T04:32:58.956Z,17.17
2022-12-18T04:34:00.442Z,13.27
2022-12-18T04:35:01.989Z,15.43
2022-12-18T04:36:03.880Z,14.70
2022-12-18T04:37:05.447Z,12.87
2022-12-18T04:38:08.107Z,15.67
2022-12-18T04:39:09.908Z,16.30
2022-12-18T04:40:11.728Z,14.97
2022-12-18T04:41:15.964Z,9.90
2022-12-18T04:42:17.727Z,13.87
2022-12-18T04:43:19.368Z,13.20
2022-12-18T04:44:20.899Z,16.53
2022-12-18T04:45:22.373Z,18.93
2022-12-18T04:46:23.923Z,17.43
2022-12-18T04:47:25.404Z,14.40
2022-12-18T04:48:26.883Z,11.87
2022-12-18T04:49:28.404Z,12.73
2022-12-18T04:50:30.395Z,12.87
2022-12-18T04:51:31.827Z,14.00
2022-12-18T04:52:33.319Z,15.93
2022-12-18T04:53:34.904Z,12.07
2022-12-18T04:54:36.339Z,10.80
2022-12-18T04:55:37.892Z,14.10
2022-12-18T04:56:40.819Z,13.30
2022-12-18T04:57:42.344Z,17.77
2022-12-18T04:58:45.355Z,13.50
2022-12-18T04:59:46.924Z,12.40
2022-12-18T05:00:48.535Z,11.73
2022-12-18T05:01:50.030Z,13.40
2022-12-18T05:02:51.707Z,11.70
2022-12-18T05:03:53.600Z,15.00
2022-12-18T05:04:55.144Z,15.80
2022-12-18T05:05:57.379Z,16.83
2022-12-18T05:06:58.848Z,13.10
2022-12-18T05:08:00.283Z,17.60
2022-12-18T05:09:01.923Z,14.37
2022-12-18T05:10:03.572Z,13.10
2022-12-18T05:11:06.144Z,12.10
2022-12-18T05:12:07.851Z,13.07
2022-12-18T05:13:09.494Z,14.23
2022-12-18T05:14:10.922Z,13.57
2022-12-18T05:15:12.393Z,16.27
2022-12-18T05:16:14.353Z,17.47
2022-12-18T05:17:15.981Z,19.43
2022-12-18T05:18:17.618Z,20.33
2022-12-18T05:19:19.163Z,16.87
2022-12-18T05:20:20.694Z,18.80
2022-12-18T05:21:22.194Z,17.83
2022-12-18T05:22:23.643Z,16.87
2022-12-18T05:23:25.643Z,16.10
2022-12-18T05:24:28.325Z,17.43
2022-12-18T05:25:29.812Z,13.77
2022-12-18T05:26:32.235Z,14.90
2022-12-18T05:27:33.685Z,15.50
2022-12-18T05:28:35.739Z,17.53
2022-12-18T05:29:37.159Z,13.83
2022-12-18T05:30:38.606Z,13.30
2022-12-18T05:31:40.333Z,16.97
2022-12-18T05:32:42.187Z,14.23
2022-12-18T05:33:43.971Z,14.83
2022-12-18T05:34:45.731Z,16.57
2022-12-18T05:35:57.859Z,11.07
2022-12-18T05:36:59.348Z,13.90
2022-12-18T05:38:00.852Z,14.03
2022-12-18T05:39:02.472Z,16.30
2022-12-18T05:40:04.884Z,15.37
2022-12-18T05:41:06.819Z,16.23
2022-12-18T05:42:08.725Z,14.80
2022-12-18T05:43:10.541Z,17.53
2022-12-18T05:44:11.992Z,16.00
2022-12-18T05:45:13.583Z,17.30
2022-12-18T05:46:16.520Z,13.67
2022-12-18T05:47:18.669Z,16.27
2022-12-18T05:48:20.698Z,13.30
2022-12-18T05:49:22.472Z,16.83
2022-12-18T05:50:23.991Z,14.50
2022-12-18T05:51:25.611Z,15.20
2022-12-18T05:52:27.133Z,14.97
2022-12-18T05:53:28.564Z,21.70
2022-12-18T05:54:30.029Z,16.97
2022-12-18T05:55:35.554Z,11.47
2022-12-18T05:56:37.003Z,17.23
2022-12-18T05:57:39.155Z,16.90
2022-12-18T05:58:40.639Z,14.40
2022-12-18T05:59:42.100Z,14.53
2022-12-18T06:00:45.103Z,13.23
2022-12-18T06:01:46.741Z,14.03
2022-12-18T06:02:48.861Z,11.90
2022-12-18T06:03:50.555Z,13.90
2022-12-18T06:04:52.048Z,13.00
2022-12-18T06:05:53.480Z,12.47
2022-12-18T06:06:55.103Z,14.80
2022-12-18T06:07:56.605Z,14.67
2022-12-18T06:08:58.090Z,13.17
2022-12-18T06:09:59.690Z,12.63
2022-12-18T06:11:01.124Z,14.13
2022-12-18T06:12:02.788Z,13.57
2022-12-18T06:13:04.331Z,11.43
2022-12-18T06:14:06.286Z,13.50
2022-12-18T06:15:08.028Z,12.00
2022-12-18T06:16:09.537Z,15.80
2022-12-18T06:17:11.041Z,12.90
2022-12-18T06:18:12.771Z,12.93
2022-12-18T06:19:16.022Z,14.93
2022-12-18T06:20:17.647Z,12.13
2022-12-18T06:21:19.543Z,12.33
2022-12-18T06:22:21.004Z,12.13
2022-12-18T06:23:22.559Z,10.47
2022-12-18T06:24:24.368Z,15.23
2022-12-18T06:25:25.849Z,10.20
2022-12-18T06:26:28.513Z,12.60
2022-12-18T06:27:30.273Z,12.73
2022-12-18T06:28:31.765Z,12.23
2022-12-18T06:29:33.231Z,14.57
2022-12-18T06:30:34.813Z,14.47
2022-12-18T06:31:36.377Z,14.27
2022-12-18T06:32:37.906Z,14.00
2022-12-18T06:33:40.009Z,14.60
2022-12-18T06:34:41.639Z,15.93
2022-12-18T06:35:43.305Z,10.77
2022-12-18T06:36:44.741Z,14.90
2022-12-18T06:37:46.296Z,14.27
2022-12-18T06:38:47.879Z,14.87
2022-12-18T06:39:49.504Z,16.93
2022-12-18T06:40:51.182Z,13.17
2022-12-18T06:41:52.647Z,16.00
2022-12-18T06:42:54.100Z,16.17
2022-12-18T06:43:59.714Z,13.83
2022-12-18T06:45:01.976Z,15.00
2022-12-18T06:46:03.882Z,14.43
2022-12-18T06:47:05.451Z,14.20
2022-12-18T06:48:07.179Z,12.83
2022-12-18T06:49:10.224Z,17.43
2022-12-18T06:50:12.118Z,14.63
2022-12-18T06:51:16.223Z,13.70
2022-12-18T06:52:17.799Z,15.00
2022-12-18T06:53:19.259Z,15.17
2022-12-18T06:54:21.011Z,15.53
2022-12-18T06:55:23.615Z,13.73
2022-12-18T06:56:25.145Z,12.47
2022-12-18T06:57:26.913Z,14.27
2022-12-18T06:58:28.761Z,12.83
2022-12-18T06:59:30.263Z,12.80
2022-12-18T07:00:31.745Z,15.60
2022-12-18T07:01:33.280Z,14.07
2022-12-18T07:02:35.033Z,13.17
2022-12-18T07:03:37.291Z,12.53
2022-12-18T07:04:39.086Z,14.23
2022-12-18T07:05:41.252Z,15.77
2022-12-18T07:06:42.747Z,16.43
2022-12-18T07:07:44.173Z,16.63
2022-12-18T07:08:46.296Z,18.03
2022-12-18T07:09:47.792Z,13.23
2022-12-18T07:10:55.780Z,16.63
2022-12-18T07:11:57.680Z,16.37
2022-12-18T07:12:59.513Z,17.33
2022-12-18T07:14:01.025Z,13.17
2022-12-18T07:15:02.668Z,16.20
2022-12-18T07:16:15.072Z,13.97
2022-12-18T07:17:18.824Z,17.40
2022-12-18T07:18:20.360Z,16.87
2022-12-18T07:19:24.343Z,15.70
2022-12-18T07:20:25.824Z,17.93
2022-12-18T07:21:27.357Z,16.17
2022-12-18T07:22:28.811Z,18.10
2022-12-18T07:23:30.683Z,14.67
2022-12-18T07:24:33.333Z,13.93
2022-12-18T07:25:35.871Z,15.97
2022-12-18T07:26:37.344Z,15.33
2022-12-18T07:27:38.780Z,15.37
2022-12-18T07:28:41.742Z,15.30
2022-12-18T07:29:43.216Z,15.03
2022-12-18T07:30:44.992Z,16.53
2022-12-18T07:31:46.768Z,18.73
2022-12-18T07:32:48.279Z,17.67
2022-12-18T07:33:50.709Z,17.30
2022-12-18T07:34:52.144Z,15.07
2022-12-18T07:35:53.628Z,19.63
2022-12-18T07:36:55.076Z,45.83
2022-12-18T07:37:56.506Z,64.43
2022-12-18T07:38:57.983Z,67.67
2022-12-18T07:39:59.438Z,70.60
2022-12-18T07:41:01.521Z,68.30
2022-12-18T07:42:21.734Z,60.13
2022-12-18T07:43:24.747Z,32.10
2022-12-18T07:44:26.175Z,31.83
2022-12-18T07:45:27.662Z,34.63
2022-12-18T07:46:29.515Z,29.77
2022-12-18T07:47:33.668Z,18.97
2022-12-18T07:48:35.192Z,21.57
2022-12-18T07:49:36.620Z,20.53
2022-12-18T07:50:38.679Z,17.87
2022-12-18T07:51:40.271Z,15.73
2022-12-18T07:52:41.711Z,18.03
2022-12-18T07:53:43.404Z,19.87
2022-12-18T07:54:45.185Z,16.90
2022-12-18T07:56:24.955Z,17.40
2022-12-18T07:57:16.506Z,15.63
2022-12-18T07:58:29.660Z,20.73
2022-12-18T07:59:31.111Z,20.00
2022-12-18T08:00:32.588Z,17.97
2022-12-18T08:01:34.429Z,19.43
2022-12-18T08:02:36.131Z,14.20
2022-12-18T08:03:38.187Z,18.03
2022-12-18T08:04:39.891Z,14.73
2022-12-18T08:05:41.339Z,17.37
2022-12-18T08:06:47.617Z,16.37
2022-12-18T08:07:50.204Z,18.30
2022-12-18T08:08:52.518Z,21.33
2022-12-18T08:09:53.956Z,15.80
2022-12-18T08:10:55.430Z,16.27
2022-12-18T08:11:57.035Z,16.63
2022-12-18T08:13:04.467Z,21.40
2022-12-18T08:14:06.488Z,19.33
2022-12-18T08:15:08.113Z,21.20
2022-12-18T08:16:09.753Z,22.13
2022-12-18T08:17:11.227Z,19.67
2022-12-18T08:18:14.568Z,18.77
2022-12-18T08:19:16.127Z,20.30
2022-12-18T08:20:19.264Z,17.50
2022-12-18T08:21:25.144Z,23.60
2022-12-18T08:22:27.085Z,18.77
2022-12-18T08:23:28.917Z,18.00
2022-12-18T08:24:30.484Z,18.97
2022-12-18T08:25:31.924Z,19.23
2022-12-18T08:26:33.471Z,19.93
2022-12-18T08:27:35.013Z,17.53
2022-12-18T08:28:36.898Z,23.57
2022-12-18T08:29:38.416Z,23.23
2022-12-18T08:30:40.230Z,19.97
2022-12-18T08:31:41.988Z,22.97
2022-12-18T08:32:43.451Z,16.93
2022-12-18T08:33:45.209Z,19.53
2022-12-18T08:34:46.658Z,20.80
2022-12-18T08:35:48.098Z,20.33
2022-12-18T08:36:49.917Z,17.67
2022-12-18T08:37:51.367Z,18.53
2022-12-18T08:38:52.984Z,18.07
2022-12-18T08:39:54.651Z,20.00
2022-12-18T08:40:59.551Z,20.93
2022-12-18T08:42:20.232Z,19.90
2022-12-18T08:43:40.758Z,19.57
2022-12-18T08:44:42.923Z,19.90
2022-12-18T08:45:44.715Z,15.37
2022-12-18T08:46:46.234Z,18.90
2022-12-18T08:47:47.712Z,21.93
2022-12-18T08:48:51.073Z,17.37
2022-12-18T08:49:52.660Z,19.33
2022-12-18T08:50:57.481Z,16.30
2022-12-18T08:51:58.984Z,19.77
2022-12-18T08:53:00.570Z,16.60
2022-12-18T08:54:02.471Z,16.07
2022-12-18T08:55:05.554Z,16.63
2022-12-18T08:56:07.341Z,17.97
2022-12-18T08:57:08.799Z,18.83
2022-12-18T08:58:10.328Z,22.93
2022-12-18T08:59:18.779Z,15.73
2022-12-18T09:00:21.224Z,17.43
2022-12-18T09:01:23.279Z,21.63
2022-12-18T09:02:25.020Z,18.90
2022-12-18T09:03:26.621Z,18.23
2022-12-18T09:04:28.211Z,21.77
2022-12-18T09:05:32.193Z,25.37
2022-12-18T09:06:33.669Z,21.03
2022-12-18T09:07:35.143Z,20.23
2022-12-18T09:08:38.118Z,24.43
2022-12-18T09:09:39.775Z,20.50
2022-12-18T09:10:45.181Z,22.63
2022-12-18T09:11:46.808Z,24.23
2022-12-18T09:12:48.252Z,26.57
2022-12-18T09:13:50.079Z,22.73
2022-12-18T09:14:51.777Z,21.50
2022-12-18T09:15:54.288Z,23.90
2022-12-18T09:16:56.048Z,21.90
2022-12-18T09:17:57.529Z,17.63
2022-12-18T09:19:02.786Z,17.43
2022-12-18T09:20:04.589Z,22.10
2022-12-18T09:21:10.302Z,18.10
2022-12-18T09:22:11.747Z,19.13
2022-12-18T09:23:13.441Z,13.27
2022-12-18T09:24:18.811Z,16.00
2022-12-18T09:25:20.628Z,17.67
2022-12-18T09:26:23.211Z,20.53
2022-12-18T09:27:24.672Z,20.43
2022-12-18T09:28:26.133Z,16.43
2022-12-18T09:29:27.637Z,18.50
2022-12-18T09:30:29.295Z,18.13
2022-12-18T09:31:30.847Z,20.97
2022-12-18T09:32:32.295Z,22.27
2022-12-18T09:33:33.911Z,17.63
2022-12-18T09:34:35.364Z,19.13
2022-12-18T09:35:40.390Z,17.80
2022-12-18T09:36:41.965Z,22.57
2022-12-18T09:37:45.572Z,19.40
2022-12-18T09:38:47.188Z,23.90
2022-12-18T09:39:48.620Z,21.00
2022-12-18T09:40:53.909Z,21.70
2022-12-18T09:41:59.032Z,26.50
2022-12-18T09:43:01.668Z,28.92
2022-12-18T09:44:18.193Z,26.47
2022-12-18T09:45:19.710Z,20.63
2022-12-18T09:46:27.186Z,25.90
2022-12-18T09:47:30.713Z,28.13
2022-12-18T09:48:33.774Z,31.03
2022-12-18T09:49:37.109Z,24.55
2022-12-18T09:50:40.141Z,23.45
2022-12-18T09:52:07.685Z,32.57
2022-12-18T09:53:14.240Z,18.83
2022-12-18T09:54:20.005Z,19.93
2022-12-18T09:55:36.905Z,21.75
2022-12-18T09:56:41.320Z,23.03
2022-12-18T09:57:47.111Z,21.95
2022-12-18T09:58:52.775Z,17.70
2022-12-18T09:59:56.159Z,20.63
2022-12-18T10:00:57.932Z,20.25
2022-12-18T10:01:59.518Z,23.97
2022-12-18T10:03:10.651Z,18.00
2022-12-18T10:04:12.376Z,22.98
2022-12-18T10:05:18.083Z,22.33
2022-12-18T10:06:33.059Z,22.30
2022-12-18T10:07:53.111Z,18.20
2022-12-18T10:09:02.808Z,21.17
2022-12-18T10:10:07.725Z,17.43
2022-12-18T10:11:18.692Z,19.90
2022-12-18T10:12:39.152Z,20.85
2022-12-18T10:13:47.842Z,19.73
2022-12-18T10:15:02.999Z,20.95
2022-12-18T10:16:14.445Z,17.87
2022-12-18T10:17:27.639Z,19.88
2022-12-18T10:18:54.167Z,21.97
2022-12-18T10:19:59.051Z,15.57
2022-12-18T10:21:18.904Z,16.63
2022-12-18T10:22:40.759Z,17.77
2022-12-18T10:23:53.011Z,17.35
2022-12-18T10:25:23.370Z,18.83
2022-12-18T10:26:25.283Z,18.13
2022-12-18T10:27:27.821Z,23.58
2022-12-18T10:28:30.866Z,19.02
2022-12-18T10:29:32.334Z,21.73
2022-12-18T10:30:33.917Z,26.83
2022-12-18T10:31:35.560Z,22.90
2022-12-18T10:32:37.233Z,22.00
2022-12-18T10:33:39.613Z,36.40
2022-12-18T10:34:41.381Z,24.48
2022-12-18T10:35:44.001Z,27.08
2022-12-18T10:36:45.945Z,24.73
2022-12-18T10:38:01.035Z,21.23
2022-12-18T10:39:19.441Z,21.45
2022-12-18T10:40:24.253Z,21.80
2022-12-18T10:41:27.820Z,20.48
2022-12-18T10:42:31.041Z,19.75
2022-12-18T10:43:33.675Z,20.30
2022-12-18T10:44:35.217Z,18.42
2022-12-18T10:45:36.700Z,18.67
2022-12-18T10:46:38.315Z,21.95
2022-12-18T10:48:00.125Z,25.48
2022-12-18T10:49:01.591Z,20.88
2022-12-18T10:50:03.214Z,19.48
2022-12-18T10:51:13.530Z,19.70
2022-12-18T10:52:17.837Z,19.38
2022-12-18T10:53:21.657Z,22.23
2022-12-18T10:54:24.156Z,20.73
2022-12-18T10:55:28.643Z,17.17
2022-12-18T10:56:31.428Z,17.70
2022-12-18T10:57:40.068Z,16.10
2022-12-18T10:58:42.365Z,18.20
2022-12-18T10:59:51.995Z,16.65
2022-12-18T11:01:05.470Z,19.20
2022-12-18T11:02:25.788Z,19.83
2022-12-18T11:03:31.500Z,16.60
2022-12-18T11:04:33.108Z,16.38
2022-12-18T11:05:35.046Z,22.02
2022-12-18T11:06:52.884Z,17.48
2022-12-18T11:07:57.423Z,19.35
2022-12-18T11:46:19.547Z,18.38
2022-12-18T11:47:43.355Z,18.35
2022-12-18T11:55:02.056Z,16.02
2022-12-18T11:56:15.467Z,19.52
2022-12-18T11:57:29.512Z,17.63
2022-12-18T11:58:39.481Z,18.23
2022-12-18T11:59:51.104Z,20.00
2022-12-18T12:01:02.778Z,18.73
2022-12-18T12:02:04.347Z,20.10
2022-12-18T12:03:14.922Z,20.13
2022-12-18T12:04:19.163Z,22.42
2022-12-18T12:05:27.226Z,19.83
2022-12-18T12:06:49.812Z,21.85
2022-12-18T12:08:03.128Z,23.00
2022-12-18T12:09:04.595Z,20.10
2022-12-18T12:10:24.398Z,19.60
2022-12-18T12:11:36.085Z,19.52
2022-12-18T12:12:49.527Z,21.38
2022-12-18T12:14:20.253Z,20.45
2022-12-18T12:15:29.418Z,21.05
2022-12-18T12:16:36.287Z,16.73
2022-12-18T12:17:43.814Z,20.73
2022-12-18T12:19:04.021Z,17.05
2022-12-18T12:20:35.934Z,19.52
2022-12-18T12:21:42.005Z,18.73
2022-12-18T12:23:02.132Z,16.35
2022-12-18T12:24:22.589Z,19.00
2022-12-18T12:25:32.219Z,20.70
2022-12-18T12:26:34.027Z,18.23
2022-12-18T12:27:35.799Z,21.73
2022-12-18T12:28:49.368Z,21.00
2022-12-18T12:30:08.470Z,22.23
2022-12-18T12:31:26.523Z,21.00
2022-12-18T12:32:43.343Z,18.33
2022-12-18T12:33:53.083Z,24.65
2022-12-18T12:35:12.836Z,20.63
2022-12-18T16:45:37.624Z,30.10
2022-12-18T16:46:40.302Z,28.45
2022-12-18T16:47:42.353Z,31.40
2022-12-18T16:48:43.840Z,34.60
2022-12-18T16:51:00.635Z,29.85
2022-12-18T16:52:02.209Z,38.00
2022-12-18T16:53:03.707Z,30.90
2022-12-18T16:54:10.164Z,67.10
2022-12-18T16:55:13.236Z,62.67
2022-12-18T16:56:14.743Z,50.33
2022-12-18T16:57:18.636Z,43.97
2022-12-18T16:58:20.196Z,50.20
2022-12-18T16:59:21.740Z,49.25
2022-12-18T17:00:23.300Z,47.75
2022-12-18T17:01:25.422Z,51.90
2022-12-18T17:02:28.364Z,43.58
2022-12-18T17:03:30.215Z,51.42
2022-12-18T17:04:31.904Z,45.42
2022-12-18T17:05:33.828Z,44.92
2022-12-18T17:06:37.154Z,48.97
2022-12-18T17:07:38.768Z,45.22
2022-12-18T17:08:40.256Z,46.97
2022-12-18T17:09:42.132Z,47.30
2022-12-18T17:10:43.956Z,45.42
2022-12-18T17:11:45.573Z,46.72
2022-12-18T17:12:47.092Z,44.97
2022-12-18T17:13:48.658Z,44.38
2022-12-18T17:14:50.577Z,47.20
2022-12-18T17:15:52.196Z,44.25
2022-12-18T17:17:19.914Z,44.75
2022-12-18T17:18:16.316Z,45.95
2022-12-18T17:19:18.053Z,48.17
2022-12-18T17:20:19.831Z,44.10
2022-12-18T17:21:21.340Z,43.23
2022-12-18T17:22:25.806Z,43.28
2022-12-18T17:23:27.560Z,40.80
2022-12-18T17:24:34.572Z,39.75
2022-12-18T17:25:40.041Z,38.83
2022-12-18T17:26:42.371Z,37.15
2022-12-18T17:27:43.857Z,36.97
2022-12-18T17:28:45.376Z,35.17
2022-12-18T17:29:48.621Z,34.22
2022-12-18T17:30:51.080Z,35.00
2022-12-18T17:31:52.680Z,31.70
2022-12-18T17:32:55.917Z,32.03
2022-12-18T17:33:58.713Z,34.75
2022-12-18T17:35:05.431Z,35.83
2022-12-18T17:36:09.220Z,33.73
2022-12-18T17:37:10.788Z,40.50
2022-12-18T17:38:13.023Z,45.20
2022-12-18T17:39:17.662Z,40.13
2022-12-18T17:40:19.312Z,39.95
2022-12-18T17:41:21.120Z,41.63
2022-12-18T17:42:22.589Z,41.10
2022-12-18T17:43:24.122Z,45.50
2022-12-18T17:44:25.914Z,46.05
2022-12-18T17:45:27.611Z,49.92
2022-12-18T17:46:31.115Z,46.78
2022-12-18T17:47:35.401Z,45.30
2022-12-18T17:48:37.025Z,45.10
2022-12-18T17:49:39.940Z,43.67
2022-12-18T17:50:41.479Z,51.45
2022-12-18T17:51:43.273Z,47.45
2022-12-18T17:52:44.967Z,47.17
2022-12-18T17:53:46.841Z,44.45
2022-12-18T17:54:48.463Z,43.10
2022-12-18T17:56:01.612Z,36.53
2022-12-18T17:57:03.652Z,32.55
2022-12-18T17:58:05.192Z,34.60
2022-12-18T17:59:07.322Z,32.83
2022-12-18T18:00:10.074Z,36.85
2022-12-18T18:01:16.216Z,37.40
2022-12-18T18:02:17.958Z,34.15
2022-12-18T18:03:19.643Z,35.05
2022-12-18T18:04:21.262Z,29.50
2022-12-18T18:05:23.131Z,31.50
2022-12-18T18:06:24.694Z,26.58
2022-12-18T18:07:26.216Z,26.70
2022-12-18T18:08:28.526Z,27.23
2022-12-18T18:09:30.004Z,32.88
2022-12-18T18:10:33.276Z,32.65
2022-12-18T18:11:55.307Z,30.83
2022-12-18T18:13:16.440Z,32.33
2022-12-18T18:14:20.147Z,30.45
2022-12-18T18:15:22.199Z,30.30
2022-12-18T18:16:23.718Z,26.92
2022-12-18T18:17:25.240Z,29.63
2022-12-18T18:18:26.754Z,29.33
2022-12-18T18:19:28.554Z,27.83
2022-12-18T18:20:32.083Z,29.55
2022-12-18T18:21:34.144Z,26.95
2022-12-18T18:22:35.966Z,29.15
2022-12-18T18:23:37.488Z,27.55
2022-12-18T18:24:43.519Z,28.73
2022-12-18T18:25:45.383Z,26.77
2022-12-18T18:26:47.412Z,28.83
2022-12-18T18:27:49.006Z,27.67
2022-12-18T18:28:55.486Z,31.15
2022-12-18T18:29:57.598Z,29.85
2022-12-18T18:30:59.794Z,28.63
2022-12-18T18:32:02.058Z,27.48
2022-12-18T18:33:06.516Z,30.17
2022-12-18T18:34:21.360Z,29.50
2022-12-18T18:35:52.318Z,27.25
2022-12-18T18:36:46.164Z,30.77
2022-12-18T18:37:48.918Z,32.05
2022-12-18T18:38:52.677Z,30.95
2022-12-18T18:39:54.283Z,32.65